sensor_id;sensor_type;location;lat;lon;timestamp;P1;durP1;ratioP1;P2;durP2;ratioP2
25073;SDS011;13066;52.042;5.648;2024-02-26T00:01:53;4.90;;;3.95;;
25073;SDS011;13066;52.042;5.648;2024-02-26T00:04:21;4.85;;;3.65;;
25073;SDS011;13066;52.042;5.648;2024-02-26T00:06:49;4.88;;;3.97;;
25073;SDS011;13066;52.042;5.648;2024-02-26T00:09:20;6.47;;;4.03;;
25073;SDS011;13066;52.042;5.648;2024-02-26T00:11:49;5.10;;;3.90;;
25073;SDS011;13066;52.042;5.648;2024-02-26T00:14:18;6.72;;;4.00;;
25073;SDS011;13066;52.042;5.648;2024-02-26T00:16:46;4.43;;;3.75;;
25073;SDS011;13066;52.042;5.648;2024-02-26T00:19:14;5.30;;;4.50;;
25073;SDS011;13066;52.042;5.648;2024-02-26T00:21:42;5.95;;;4.35;;
25073;SDS011;13066;52.042;5.648;2024-02-26T00:24:10;5.05;;;4.10;;
25073;SDS011;13066;52.042;5.648;2024-02-26T00:26:38;4.15;;;3.63;;
25073;SDS011;13066;52.042;5.648;2024-02-26T00:29:06;6.45;;;4.10;;
25073;SDS011;13066;52.042;5.648;2024-02-26T00:31:37;5.00;;;3.90;;
25073;SDS011;13066;52.042;5.648;2024-02-26T00:34:05;7.22;;;3.92;;
25073;SDS011;13066;52.042;5.648;2024-02-26T00:36:33;5.45;;;4.28;;
25073;SDS011;13066;52.042;5.648;2024-02-26T00:39:01;7.10;;;4.45;;
25073;SDS011;13066;52.042;5.648;2024-02-26T00:41:30;6.25;;;4.28;;
25073;SDS011;13066;52.042;5.648;2024-02-26T00:43:58;4.97;;;4.15;;
25073;SDS011;13066;52.042;5.648;2024-02-26T00:46:27;6.00;;;4.32;;
25073;SDS011;13066;52.042;5.648;2024-02-26T00:48:56;5.82;;;4.03;;
25073;SDS011;13066;52.042;5.648;2024-02-26T00:51:24;5.43;;;3.70;;
25073;SDS011;13066;52.042;5.648;2024-02-26T00:53:53;4.93;;;4.13;;
25073;SDS011;13066;52.042;5.648;2024-02-26T00:56:22;4.38;;;3.95;;
25073;SDS011;13066;52.042;5.648;2024-02-26T00:58:50;4.60;;;4.05;;
25073;SDS011;13066;52.042;5.648;2024-02-26T01:01:19;5.47;;;4.03;;
25073;SDS011;13066;52.042;5.648;2024-02-26T01:03:47;4.90;;;3.65;;
25073;SDS011;13066;52.042;5.648;2024-02-26T01:06:17;4.32;;;3.72;;
25073;SDS011;13066;52.042;5.648;2024-02-26T01:08:45;4.70;;;3.95;;
25073;SDS011;13066;52.042;5.648;2024-02-26T01:11:13;5.05;;;4.20;;
25073;SDS011;13066;52.042;5.648;2024-02-26T01:13:41;7.18;;;4.47;;
25073;SDS011;13066;52.042;5.648;2024-02-26T01:16:09;5.15;;;3.90;;
25073;SDS011;13066;52.042;5.648;2024-02-26T01:18:38;5.13;;;4.13;;
25073;SDS011;13066;52.042;5.648;2024-02-26T01:21:06;5.38;;;4.63;;
25073;SDS011;13066;52.042;5.648;2024-02-26T01:23:37;5.97;;;4.03;;
25073;SDS011;13066;52.042;5.648;2024-02-26T01:26:05;4.95;;;3.90;;
25073;SDS011;13066;52.042;5.648;2024-02-26T01:28:33;5.50;;;4.05;;
25073;SDS011;13066;52.042;5.648;2024-02-26T01:31:01;5.10;;;3.92;;
25073;SDS011;13066;52.042;5.648;2024-02-26T01:33:31;5.32;;;4.13;;
25073;SDS011;13066;52.042;5.648;2024-02-26T01:36:00;4.93;;;3.95;;
25073;SDS011;13066;52.042;5.648;2024-02-26T01:38:28;6.00;;;4.40;;
25073;SDS011;13066;52.042;5.648;2024-02-26T01:40:57;5.57;;;4.60;;
25073;SDS011;13066;52.042;5.648;2024-02-26T01:43:25;7.50;;;5.03;;
25073;SDS011;13066;52.042;5.648;2024-02-26T01:45:54;7.05;;;4.93;;
25073;SDS011;13066;52.042;5.648;2024-02-26T01:48:22;5.53;;;4.80;;
25073;SDS011;13066;52.042;5.648;2024-02-26T01:50:50;7.25;;;5.15;;
25073;SDS011;13066;52.042;5.648;2024-02-26T01:53:19;6.15;;;5.05;;
25073;SDS011;13066;52.042;5.648;2024-02-26T01:55:47;5.38;;;4.60;;
25073;SDS011;13066;52.042;5.648;2024-02-26T01:58:16;5.47;;;4.70;;
25073;SDS011;13066;52.042;5.648;2024-02-26T02:00:45;6.60;;;5.85;;
25073;SDS011;13066;52.042;5.648;2024-02-26T02:03:13;5.50;;;5.00;;
25073;SDS011;13066;52.042;5.648;2024-02-26T02:05:41;5.50;;;5.00;;
25073;SDS011;13066;52.042;5.648;2024-02-26T02:08:10;5.35;;;4.80;;
25073;SDS011;13066;52.042;5.648;2024-02-26T02:10:38;5.65;;;4.93;;
25073;SDS011;13066;52.042;5.648;2024-02-26T02:13:07;7.57;;;5.10;;
25073;SDS011;13066;52.042;5.648;2024-02-26T02:15:36;6.10;;;5.18;;
25073;SDS011;13066;52.042;5.648;2024-02-26T02:18:05;5.00;;;4.60;;
25073;SDS011;13066;52.042;5.648;2024-02-26T02:20:35;5.75;;;5.15;;
25073;SDS011;13066;52.042;5.648;2024-02-26T02:23:03;5.93;;;5.43;;
25073;SDS011;13066;52.042;5.648;2024-02-26T02:25:31;7.30;;;5.70;;
25073;SDS011;13066;52.042;5.648;2024-02-26T02:28:00;6.78;;;6.07;;
25073;SDS011;13066;52.042;5.648;2024-02-26T02:30:29;7.22;;;5.75;;
25073;SDS011;13066;52.042;5.648;2024-02-26T02:32:57;6.15;;;5.55;;
25073;SDS011;13066;52.042;5.648;2024-02-26T02:35:26;6.20;;;5.60;;
25073;SDS011;13066;52.042;5.648;2024-02-26T02:37:56;6.63;;;5.90;;
25073;SDS011;13066;52.042;5.648;2024-02-26T02:40:24;6.20;;;5.28;;
25073;SDS011;13066;52.042;5.648;2024-02-26T02:42:53;6.55;;;5.40;;
25073;SDS011;13066;52.042;5.648;2024-02-26T02:45:21;8.02;;;5.93;;
25073;SDS011;13066;52.042;5.648;2024-02-26T02:47:49;7.15;;;5.68;;
25073;SDS011;13066;52.042;5.648;2024-02-26T02:50:17;7.38;;;5.60;;
25073;SDS011;13066;52.042;5.648;2024-02-26T02:52:45;6.10;;;5.50;;
25073;SDS011;13066;52.042;5.648;2024-02-26T02:55:16;6.32;;;5.72;;
25073;SDS011;13066;52.042;5.648;2024-02-26T02:57:44;6.55;;;5.95;;
25073;SDS011;13066;52.042;5.648;2024-02-26T03:00:12;6.63;;;5.82;;
25073;SDS011;13066;52.042;5.648;2024-02-26T03:02:41;6.57;;;5.82;;
25073;SDS011;13066;52.042;5.648;2024-02-26T03:05:09;6.45;;;5.85;;
25073;SDS011;13066;52.042;5.648;2024-02-26T03:07:36;6.38;;;5.68;;
25073;SDS011;13066;52.042;5.648;2024-02-26T03:10:05;7.75;;;5.85;;
25073;SDS011;13066;52.042;5.648;2024-02-26T03:12:34;7.93;;;6.10;;
25073;SDS011;13066;52.042;5.648;2024-02-26T03:15:04;6.20;;;5.60;;
25073;SDS011;13066;52.042;5.648;2024-02-26T03:17:32;6.85;;;5.75;;
25073;SDS011;13066;52.042;5.648;2024-02-26T03:20:00;5.80;;;5.30;;
25073;SDS011;13066;52.042;5.648;2024-02-26T03:22:31;8.77;;;6.43;;
25073;SDS011;13066;52.042;5.648;2024-02-26T03:24:59;6.55;;;5.88;;
25073;SDS011;13066;52.042;5.648;2024-02-26T03:27:27;6.35;;;5.75;;
25073;SDS011;13066;52.042;5.648;2024-02-26T03:29:56;6.72;;;5.40;;
25073;SDS011;13066;52.042;5.648;2024-02-26T03:32:25;8.13;;;6.18;;
25073;SDS011;13066;52.042;5.648;2024-02-26T03:34:53;6.78;;;5.55;;
25073;SDS011;13066;52.042;5.648;2024-02-26T03:37:22;6.13;;;5.53;;
25073;SDS011;13066;52.042;5.648;2024-02-26T03:39:50;6.53;;;5.80;;
25073;SDS011;13066;52.042;5.648;2024-02-26T03:42:18;7.07;;;5.93;;
25073;SDS011;13066;52.042;5.648;2024-02-26T03:44:46;6.70;;;5.40;;
25073;SDS011;13066;52.042;5.648;2024-02-26T03:47:16;6.38;;;5.60;;
25073;SDS011;13066;52.042;5.648;2024-02-26T03:49:44;6.03;;;5.40;;
25073;SDS011;13066;52.042;5.648;2024-02-26T03:52:12;6.38;;;5.78;;
25073;SDS011;13066;52.042;5.648;2024-02-26T03:54:41;7.05;;;6.00;;
25073;SDS011;13066;52.042;5.648;2024-02-26T03:57:09;6.85;;;6.15;;
25073;SDS011;13066;52.042;5.648;2024-02-26T03:59:37;7.93;;;6.53;;
25073;SDS011;13066;52.042;5.648;2024-02-26T04:02:06;7.47;;;6.70;;
25073;SDS011;13066;52.042;5.648;2024-02-26T04:04:37;8.30;;;6.68;;
25073;SDS011;13066;52.042;5.648;2024-02-26T04:07:05;7.35;;;6.35;;
25073;SDS011;13066;52.042;5.648;2024-02-26T04:09:34;7.32;;;6.60;;
25073;SDS011;13066;52.042;5.648;2024-02-26T04:12:02;7.60;;;6.85;;
25073;SDS011;13066;52.042;5.648;2024-02-26T04:14:30;7.97;;;6.78;;
25073;SDS011;13066;52.042;5.648;2024-02-26T04:16:58;8.57;;;6.93;;
25073;SDS011;13066;52.042;5.648;2024-02-26T04:19:26;7.60;;;6.80;;
25073;SDS011;13066;52.042;5.648;2024-02-26T04:21:56;8.13;;;6.90;;
25073;SDS011;13066;52.042;5.648;2024-02-26T04:24:24;7.60;;;6.60;;
25073;SDS011;13066;52.042;5.648;2024-02-26T04:26:52;10.85;;;6.72;;
25073;SDS011;13066;52.042;5.648;2024-02-26T04:29:20;9.00;;;7.05;;
25073;SDS011;13066;52.042;5.648;2024-02-26T04:31:48;7.78;;;6.97;;
25073;SDS011;13066;52.042;5.648;2024-02-26T04:34:16;8.60;;;7.80;;
25073;SDS011;13066;52.042;5.648;2024-02-26T04:36:45;9.23;;;8.15;;
25073;SDS011;13066;52.042;5.648;2024-02-26T04:39:16;9.07;;;8.10;;
25073;SDS011;13066;52.042;5.648;2024-02-26T04:41:44;9.90;;;7.95;;
25073;SDS011;13066;52.042;5.648;2024-02-26T04:44:12;8.25;;;7.45;;
25073;SDS011;13066;52.042;5.648;2024-02-26T04:46:42;9.25;;;8.23;;
25073;SDS011;13066;52.042;5.648;2024-02-26T04:49:10;9.52;;;8.07;;
25073;SDS011;13066;52.042;5.648;2024-02-26T04:51:38;10.18;;;8.77;;
25073;SDS011;13066;52.042;5.648;2024-02-26T04:54:06;9.23;;;8.32;;
25073;SDS011;13066;52.042;5.648;2024-02-26T04:56:36;9.93;;;8.52;;
25073;SDS011;13066;52.042;5.648;2024-02-26T04:59:04;9.20;;;8.30;;
25073;SDS011;13066;52.042;5.648;2024-02-26T05:01:32;9.52;;;8.52;;
25073;SDS011;13066;52.042;5.648;2024-02-26T05:04:00;9.43;;;8.43;;
25073;SDS011;13066;52.042;5.648;2024-02-26T05:06:29;9.85;;;8.43;;
25073;SDS011;13066;52.042;5.648;2024-02-26T05:08:57;9.23;;;8.27;;
25073;SDS011;13066;52.042;5.648;2024-02-26T05:11:26;8.90;;;7.57;;
25073;SDS011;13066;52.042;5.648;2024-02-26T05:13:55;8.82;;;7.60;;
25073;SDS011;13066;52.042;5.648;2024-02-26T05:16:23;9.82;;;8.82;;
25073;SDS011;13066;52.042;5.648;2024-02-26T05:18:53;8.60;;;7.72;;
25073;SDS011;13066;52.042;5.648;2024-02-26T05:21:22;9.85;;;8.60;;
25073;SDS011;13066;52.042;5.648;2024-02-26T05:23:50;9.52;;;8.50;;
25073;SDS011;13066;52.042;5.648;2024-02-26T05:26:21;9.98;;;8.45;;
25073;SDS011;13066;52.042;5.648;2024-02-26T05:28:49;8.30;;;7.50;;
25073;SDS011;13066;52.042;5.648;2024-02-26T05:31:19;9.15;;;8.25;;
25073;SDS011;13066;52.042;5.648;2024-02-26T05:33:47;10.95;;;8.30;;
25073;SDS011;13066;52.042;5.648;2024-02-26T05:36:18;9.95;;;7.82;;
25073;SDS011;13066;52.042;5.648;2024-02-26T05:38:48;9.10;;;7.95;;
25073;SDS011;13066;52.042;5.648;2024-02-26T05:41:17;10.70;;;8.40;;
25073;SDS011;13066;52.042;5.648;2024-02-26T05:43:50;8.87;;;7.70;;
25073;SDS011;13066;52.042;5.648;2024-02-26T05:46:19;9.75;;;8.35;;
25073;SDS011;13066;52.042;5.648;2024-02-26T05:48:49;9.50;;;8.18;;
25073;SDS011;13066;52.042;5.648;2024-02-26T05:51:18;10.18;;;8.40;;
25073;SDS011;13066;52.042;5.648;2024-02-26T05:53:47;9.00;;;8.00;;
25073;SDS011;13066;52.042;5.648;2024-02-26T05:56:21;8.43;;;7.57;;
25073;SDS011;13066;52.042;5.648;2024-02-26T05:58:49;9.63;;;8.63;;
25073;SDS011;13066;52.042;5.648;2024-02-26T06:01:19;8.90;;;7.78;;
25073;SDS011;13066;52.042;5.648;2024-02-26T06:03:48;9.88;;;8.32;;
25073;SDS011;13066;52.042;5.648;2024-02-26T06:06:16;9.50;;;8.50;;
25073;SDS011;13066;52.042;5.648;2024-02-26T06:08:45;10.05;;;9.00;;
25073;SDS011;13066;52.042;5.648;2024-02-26T06:11:13;10.98;;;9.07;;
25073;SDS011;13066;52.042;5.648;2024-02-26T06:13:41;10.52;;;8.85;;
25073;SDS011;13066;52.042;5.648;2024-02-26T06:16:09;9.93;;;8.88;;
25073;SDS011;13066;52.042;5.648;2024-02-26T06:18:38;10.60;;;9.50;;
25073;SDS011;13066;52.042;5.648;2024-02-26T06:21:08;11.27;;;9.15;;
25073;SDS011;13066;52.042;5.648;2024-02-26T06:23:37;10.40;;;9.02;;
25073;SDS011;13066;52.042;5.648;2024-02-26T06:26:05;10.48;;;9.30;;
25073;SDS011;13066;52.042;5.648;2024-02-26T06:28:33;11.27;;;10.05;;
25073;SDS011;13066;52.042;5.648;2024-02-26T06:31:02;11.45;;;9.48;;
25073;SDS011;13066;52.042;5.648;2024-02-26T06:33:30;12.80;;;10.98;;
25073;SDS011;13066;52.042;5.648;2024-02-26T06:36:00;12.43;;;11.13;;
25073;SDS011;13066;52.042;5.648;2024-02-26T06:38:28;13.32;;;10.75;;
25073;SDS011;13066;52.042;5.648;2024-02-26T06:40:56;12.93;;;11.52;;
25073;SDS011;13066;52.042;5.648;2024-02-26T06:43:25;12.35;;;10.73;;
25073;SDS011;13066;52.042;5.648;2024-02-26T06:45:53;12.15;;;10.18;;
25073;SDS011;13066;52.042;5.648;2024-02-26T06:48:22;12.60;;;10.75;;
25073;SDS011;13066;52.042;5.648;2024-02-26T06:50:51;13.20;;;11.00;;
25073;SDS011;13066;52.042;5.648;2024-02-26T06:53:21;14.43;;;11.85;;
25073;SDS011;13066;52.042;5.648;2024-02-26T06:55:49;13.88;;;11.60;;
25073;SDS011;13066;52.042;5.648;2024-02-26T06:58:17;16.70;;;12.95;;
25073;SDS011;13066;52.042;5.648;2024-02-26T07:00:45;15.82;;;12.85;;
25073;SDS011;13066;52.042;5.648;2024-02-26T07:03:14;14.73;;;12.02;;
25073;SDS011;13066;52.042;5.648;2024-02-26T07:05:42;15.40;;;13.35;;
25073;SDS011;13066;52.042;5.648;2024-02-26T07:08:11;13.93;;;11.80;;
25073;SDS011;13066;52.042;5.648;2024-02-26T07:10:41;16.05;;;13.55;;
25073;SDS011;13066;52.042;5.648;2024-02-26T07:13:10;16.80;;;13.90;;
25073;SDS011;13066;52.042;5.648;2024-02-26T07:15:38;16.30;;;13.48;;
25073;SDS011;13066;52.042;5.648;2024-02-26T07:18:06;17.98;;;14.18;;
25073;SDS011;13066;52.042;5.648;2024-02-26T07:20:35;17.42;;;13.82;;
25073;SDS011;13066;52.042;5.648;2024-02-26T07:23:03;16.75;;;13.85;;
25073;SDS011;13066;52.042;5.648;2024-02-26T07:25:31;16.15;;;13.45;;
25073;SDS011;13066;52.042;5.648;2024-02-26T07:28:01;16.70;;;13.30;;
25073;SDS011;13066;52.042;5.648;2024-02-26T07:30:29;17.02;;;14.20;;
25073;SDS011;13066;52.042;5.648;2024-02-26T07:32:57;16.45;;;13.98;;
25073;SDS011;13066;52.042;5.648;2024-02-26T07:35:25;18.20;;;14.13;;
25073;SDS011;13066;52.042;5.648;2024-02-26T07:37:54;18.58;;;14.88;;
25073;SDS011;13066;52.042;5.648;2024-02-26T07:40:22;17.55;;;14.50;;
25073;SDS011;13066;52.042;5.648;2024-02-26T07:42:51;18.27;;;14.38;;
25073;SDS011;13066;52.042;5.648;2024-02-26T07:45:20;20.02;;;15.85;;
25073;SDS011;13066;52.042;5.648;2024-02-26T07:47:48;21.05;;;16.33;;
25073;SDS011;13066;52.042;5.648;2024-02-26T07:50:18;21.20;;;16.48;;
25073;SDS011;13066;52.042;5.648;2024-02-26T07:52:47;21.70;;;17.02;;
25073;SDS011;13066;52.042;5.648;2024-02-26T07:55:17;21.90;;;17.05;;
25073;SDS011;13066;52.042;5.648;2024-02-26T07:57:46;23.42;;;18.40;;
25073;SDS011;13066;52.042;5.648;2024-02-26T08:00:14;21.17;;;16.67;;
25073;SDS011;13066;52.042;5.648;2024-02-26T08:02:45;23.33;;;17.58;;
25073;SDS011;13066;52.042;5.648;2024-02-26T08:05:13;25.25;;;19.73;;
25073;SDS011;13066;52.042;5.648;2024-02-26T08:07:41;25.23;;;18.33;;
25073;SDS011;13066;52.042;5.648;2024-02-26T08:10:10;25.50;;;19.35;;
25073;SDS011;13066;52.042;5.648;2024-02-26T08:12:38;27.15;;;19.77;;
25073;SDS011;13066;52.042;5.648;2024-02-26T08:15:06;27.33;;;20.23;;
25073;SDS011;13066;52.042;5.648;2024-02-26T08:17:35;27.23;;;20.08;;
25073;SDS011;13066;52.042;5.648;2024-02-26T08:20:05;26.15;;;19.65;;
25073;SDS011;13066;52.042;5.648;2024-02-26T08:22:34;28.05;;;20.27;;
25073;SDS011;13066;52.042;5.648;2024-02-26T08:25:04;26.48;;;20.17;;
25073;SDS011;13066;52.042;5.648;2024-02-26T08:27:33;26.05;;;19.48;;
25073;SDS011;13066;52.042;5.648;2024-02-26T08:30:01;27.80;;;19.88;;
25073;SDS011;13066;52.042;5.648;2024-02-26T08:32:30;27.95;;;20.23;;
25073;SDS011;13066;52.042;5.648;2024-02-26T08:34:58;27.83;;;21.25;;
25073;SDS011;13066;52.042;5.648;2024-02-26T08:37:28;30.40;;;22.05;;
25073;SDS011;13066;52.042;5.648;2024-02-26T08:39:56;28.30;;;19.70;;
25073;SDS011;13066;52.042;5.648;2024-02-26T08:42:29;26.05;;;18.60;;
25073;SDS011;13066;52.042;5.648;2024-02-26T08:44:57;26.05;;;19.27;;
25073;SDS011;13066;52.042;5.648;2024-02-26T08:47:27;24.55;;;19.13;;
25073;SDS011;13066;52.042;5.648;2024-02-26T08:49:55;25.48;;;19.63;;
25073;SDS011;13066;52.042;5.648;2024-02-26T08:52:23;26.70;;;19.10;;
25073;SDS011;13066;52.042;5.648;2024-02-26T08:54:53;23.10;;;17.75;;
25073;SDS011;13066;52.042;5.648;2024-02-26T08:57:21;23.52;;;18.00;;
25073;SDS011;13066;52.042;5.648;2024-02-26T08:59:49;23.02;;;17.67;;
25073;SDS011;13066;52.042;5.648;2024-02-26T09:02:17;23.05;;;17.17;;
25073;SDS011;13066;52.042;5.648;2024-02-26T09:04:46;21.92;;;17.13;;
25073;SDS011;13066;52.042;5.648;2024-02-26T09:07:14;20.55;;;16.33;;
25073;SDS011;13066;52.042;5.648;2024-02-26T09:09:42;20.52;;;15.30;;
25073;SDS011;13066;52.042;5.648;2024-02-26T09:12:12;20.05;;;16.10;;
25073;SDS011;13066;52.042;5.648;2024-02-26T09:14:40;19.95;;;15.95;;
25073;SDS011;13066;52.042;5.648;2024-02-26T09:17:08;19.20;;;15.45;;
25073;SDS011;13066;52.042;5.648;2024-02-26T09:19:36;18.67;;;14.93;;
25073;SDS011;13066;52.042;5.648;2024-02-26T09:22:04;19.10;;;14.18;;
25073;SDS011;13066;52.042;5.648;2024-02-26T09:24:34;16.63;;;13.25;;
25073;SDS011;13066;52.042;5.648;2024-02-26T09:27:02;16.38;;;12.50;;
25073;SDS011;13066;52.042;5.648;2024-02-26T09:29:32;15.38;;;12.98;;
25073;SDS011;13066;52.042;5.648;2024-02-26T09:32:00;15.18;;;12.88;;
25073;SDS011;13066;52.042;5.648;2024-02-26T09:34:29;15.95;;;12.65;;
25073;SDS011;13066;52.042;5.648;2024-02-26T09:36:57;14.23;;;12.45;;
25073;SDS011;13066;52.042;5.648;2024-02-26T09:39:38;15.48;;;13.05;;
25073;SDS011;13066;52.042;5.648;2024-02-26T09:42:06;15.80;;;12.75;;
25073;SDS011;13066;52.042;5.648;2024-02-26T09:44:39;14.43;;;12.13;;
25073;SDS011;13066;52.042;5.648;2024-02-26T09:47:09;14.25;;;12.35;;
25073;SDS011;13066;52.042;5.648;2024-02-26T09:49:38;14.77;;;12.25;;
25073;SDS011;13066;52.042;5.648;2024-02-26T09:52:06;14.65;;;12.07;;
25073;SDS011;13066;52.042;5.648;2024-02-26T09:54:36;14.48;;;11.40;;
25073;SDS011;13066;52.042;5.648;2024-02-26T09:57:04;13.18;;;11.57;;
25073;SDS011;13066;52.042;5.648;2024-02-26T09:59:43;14.35;;;11.35;;
25073;SDS011;13066;52.042;5.648;2024-02-26T10:02:12;13.27;;;11.88;;
25073;SDS011;13066;52.042;5.648;2024-02-26T10:04:41;13.05;;;11.23;;
25073;SDS011;13066;52.042;5.648;2024-02-26T10:07:16;12.55;;;11.25;;
25073;SDS011;13066;52.042;5.648;2024-02-26T10:09:44;15.48;;;11.80;;
25073;SDS011;13066;52.042;5.648;2024-02-26T10:12:12;12.55;;;11.18;;
25073;SDS011;13066;52.042;5.648;2024-02-26T10:14:43;12.80;;;10.85;;
25073;SDS011;13066;52.042;5.648;2024-02-26T10:17:11;12.65;;;10.48;;
25073;SDS011;13066;52.042;5.648;2024-02-26T10:19:39;12.68;;;10.30;;
25073;SDS011;13066;52.042;5.648;2024-02-26T10:22:08;11.23;;;9.93;;
25073;SDS011;13066;52.042;5.648;2024-02-26T10:24:36;11.27;;;9.85;;
25073;SDS011;13066;52.042;5.648;2024-02-26T10:27:05;12.10;;;10.18;;
25073;SDS011;13066;52.042;5.648;2024-02-26T10:29:34;11.80;;;9.50;;
25073;SDS011;13066;52.042;5.648;2024-02-26T10:32:04;11.48;;;9.82;;
25073;SDS011;13066;52.042;5.648;2024-02-26T10:34:33;12.45;;;9.88;;
25073;SDS011;13066;52.042;5.648;2024-02-26T10:37:04;12.55;;;10.95;;
25073;SDS011;13066;52.042;5.648;2024-02-26T10:39:33;11.73;;;10.02;;
25073;SDS011;13066;52.042;5.648;2024-02-26T10:42:04;12.82;;;10.68;;
25073;SDS011;13066;52.042;5.648;2024-02-26T10:44:36;11.77;;;9.90;;
25073;SDS011;13066;52.042;5.648;2024-02-26T10:47:06;12.45;;;10.18;;
25073;SDS011;13066;52.042;5.648;2024-02-26T10:49:35;12.93;;;10.27;;
25073;SDS011;13066;52.042;5.648;2024-02-26T10:52:04;12.45;;;10.27;;
25073;SDS011;13066;52.042;5.648;2024-02-26T10:54:33;12.02;;;10.30;;
25073;SDS011;13066;52.042;5.648;2024-02-26T10:57:02;11.65;;;10.40;;
25073;SDS011;13066;52.042;5.648;2024-02-26T10:59:31;11.30;;;9.70;;
25073;SDS011;13066;52.042;5.648;2024-02-26T11:02:01;11.73;;;10.00;;
25073;SDS011;13066;52.042;5.648;2024-02-26T11:04:30;11.50;;;9.57;;
25073;SDS011;13066;52.042;5.648;2024-02-26T11:06:59;12.75;;;9.95;;
25073;SDS011;13066;52.042;5.648;2024-02-26T11:09:27;11.73;;;9.20;;
25073;SDS011;13066;52.042;5.648;2024-02-26T11:11:56;12.25;;;9.57;;
25073;SDS011;13066;52.042;5.648;2024-02-26T11:14:26;10.77;;;9.15;;
25073;SDS011;13066;52.042;5.648;2024-02-26T11:16:54;12.60;;;9.57;;
25073;SDS011;13066;52.042;5.648;2024-02-26T11:19:24;13.65;;;10.93;;
25073;SDS011;13066;52.042;5.648;2024-02-26T11:21:54;12.27;;;10.73;;
25073;SDS011;13066;52.042;5.648;2024-02-26T11:26:57;13.43;;;11.35;;
25073;SDS011;13066;52.042;5.648;2024-02-26T11:29:32;13.02;;;10.98;;
25073;SDS011;13066;52.042;5.648;2024-02-26T11:32:03;11.65;;;10.15;;
25073;SDS011;13066;52.042;5.648;2024-02-26T11:34:31;11.30;;;9.57;;
25073;SDS011;13066;52.042;5.648;2024-02-26T11:37:10;12.65;;;9.80;;
25073;SDS011;13066;52.042;5.648;2024-02-26T11:39:39;11.95;;;10.70;;
25073;SDS011;13066;52.042;5.648;2024-02-26T11:42:08;12.13;;;10.10;;
25073;SDS011;13066;52.042;5.648;2024-02-26T11:44:37;12.57;;;10.43;;
25073;SDS011;13066;52.042;5.648;2024-02-26T11:47:11;12.20;;;9.98;;
25073;SDS011;13066;52.042;5.648;2024-02-26T11:49:40;13.18;;;10.55;;
25073;SDS011;13066;52.042;5.648;2024-02-26T11:52:10;11.98;;;9.65;;
25073;SDS011;13066;52.042;5.648;2024-02-26T11:54:39;14.23;;;11.07;;
25073;SDS011;13066;52.042;5.648;2024-02-26T11:57:21;11.35;;;10.10;;
25073;SDS011;13066;52.042;5.648;2024-02-26T11:59:54;10.57;;;9.40;;
25073;SDS011;13066;52.042;5.648;2024-02-26T12:02:43;11.90;;;9.68;;
25073;SDS011;13066;52.042;5.648;2024-02-26T12:05:13;12.15;;;9.98;;
25073;SDS011;13066;52.042;5.648;2024-02-26T12:07:48;11.90;;;9.50;;
25073;SDS011;13066;52.042;5.648;2024-02-26T12:10:22;10.60;;;8.88;;
25073;SDS011;13066;52.042;5.648;2024-02-26T12:12:53;10.43;;;8.90;;
25073;SDS011;13066;52.042;5.648;2024-02-26T12:15:23;10.00;;;8.88;;
25073;SDS011;13066;52.042;5.648;2024-02-26T12:17:52;11.82;;;9.00;;
25073;SDS011;13066;52.042;5.648;2024-02-26T12:20:20;13.02;;;9.85;;
25073;SDS011;13066;52.042;5.648;2024-02-26T12:22:49;12.00;;;9.05;;
25073;SDS011;13066;52.042;5.648;2024-02-26T12:25:20;11.63;;;9.32;;
25073;SDS011;13066;52.042;5.648;2024-02-26T12:27:50;10.57;;;8.68;;
25073;SDS011;13066;52.042;5.648;2024-02-26T12:30:18;9.48;;;8.43;;
25073;SDS011;13066;52.042;5.648;2024-02-26T12:32:47;10.40;;;8.90;;
25073;SDS011;13066;52.042;5.648;2024-02-26T12:35:15;11.43;;;8.70;;
25073;SDS011;13066;52.042;5.648;2024-02-26T12:37:44;10.75;;;8.70;;
25073;SDS011;13066;52.042;5.648;2024-02-26T12:40:13;10.38;;;8.52;;
25073;SDS011;13066;52.042;5.648;2024-02-26T12:42:42;9.20;;;7.68;;
25073;SDS011;13066;52.042;5.648;2024-02-26T12:45:10;10.18;;;8.30;;
25073;SDS011;13066;52.042;5.648;2024-02-26T12:47:39;9.93;;;8.68;;
25073;SDS011;13066;52.042;5.648;2024-02-26T12:50:08;11.20;;;8.63;;
25073;SDS011;13066;52.042;5.648;2024-02-26T12:52:38;8.57;;;7.28;;
25073;SDS011;13066;52.042;5.648;2024-02-26T12:55:07;9.48;;;7.85;;
25073;SDS011;13066;52.042;5.648;2024-02-26T12:57:38;9.68;;;8.00;;
25073;SDS011;13066;52.042;5.648;2024-02-26T13:00:06;9.45;;;8.13;;
25073;SDS011;13066;52.042;5.648;2024-02-26T13:02:37;9.05;;;7.82;;
25073;SDS011;13066;52.042;5.648;2024-02-26T13:05:07;9.35;;;8.35;;
25073;SDS011;13066;52.042;5.648;2024-02-26T13:07:40;10.18;;;8.38;;
25073;SDS011;13066;52.042;5.648;2024-02-26T13:10:09;8.95;;;7.88;;
25073;SDS011;13066;52.042;5.648;2024-02-26T13:12:43;9.35;;;8.20;;
25073;SDS011;13066;52.042;5.648;2024-02-26T13:15:14;9.13;;;8.18;;
25073;SDS011;13066;52.042;5.648;2024-02-26T13:17:43;9.23;;;7.93;;
25073;SDS011;13066;52.042;5.648;2024-02-26T13:20:11;9.70;;;8.20;;
25073;SDS011;13066;52.042;5.648;2024-02-26T13:22:40;10.73;;;8.50;;
25073;SDS011;13066;52.042;5.648;2024-02-26T13:25:08;9.45;;;8.45;;
25073;SDS011;13066;52.042;5.648;2024-02-26T13:27:36;9.35;;;8.10;;
25073;SDS011;13066;52.042;5.648;2024-02-26T13:30:08;9.45;;;8.32;;
25073;SDS011;13066;52.042;5.648;2024-02-26T13:32:38;9.30;;;8.13;;
25073;SDS011;13066;52.042;5.648;2024-02-26T13:35:07;9.82;;;8.35;;
25073;SDS011;13066;52.042;5.648;2024-02-26T13:37:36;11.05;;;9.00;;
25073;SDS011;13066;52.042;5.648;2024-02-26T13:40:05;9.55;;;8.45;;
25073;SDS011;13066;52.042;5.648;2024-02-26T13:42:35;10.60;;;8.35;;
25073;SDS011;13066;52.042;5.648;2024-02-26T13:45:03;9.48;;;7.70;;
25073;SDS011;13066;52.042;5.648;2024-02-26T13:47:35;9.15;;;8.25;;
25073;SDS011;13066;52.042;5.648;2024-02-26T13:50:03;9.55;;;7.95;;
25073;SDS011;13066;52.042;5.648;2024-02-26T13:52:32;8.75;;;7.85;;
25073;SDS011;13066;52.042;5.648;2024-02-26T13:55:01;10.00;;;8.93;;
25073;SDS011;13066;52.042;5.648;2024-02-26T13:57:29;11.63;;;9.43;;
25073;SDS011;13066;52.042;5.648;2024-02-26T13:59:57;9.13;;;8.23;;
25073;SDS011;13066;52.042;5.648;2024-02-26T14:02:25;11.02;;;8.07;;
25073;SDS011;13066;52.042;5.648;2024-02-26T14:04:55;10.23;;;8.55;;
25073;SDS011;13066;52.042;5.648;2024-02-26T14:07:23;9.25;;;8.35;;
25073;SDS011;13066;52.042;5.648;2024-02-26T14:09:51;10.57;;;8.95;;
25073;SDS011;13066;52.042;5.648;2024-02-26T14:12:19;8.88;;;7.97;;
25073;SDS011;13066;52.042;5.648;2024-02-26T14:14:50;10.73;;;8.55;;
25073;SDS011;13066;52.042;5.648;2024-02-26T14:17:20;9.30;;;8.15;;
25073;SDS011;13066;52.042;5.648;2024-02-26T14:19:48;8.90;;;8.00;;
25073;SDS011;13066;52.042;5.648;2024-02-26T14:22:18;9.55;;;8.50;;
25073;SDS011;13066;52.042;5.648;2024-02-26T14:24:46;9.18;;;7.65;;
25073;SDS011;13066;52.042;5.648;2024-02-26T14:27:14;8.77;;;7.38;;
25073;SDS011;13066;52.042;5.648;2024-02-26T14:29:43;8.35;;;7.55;;
25073;SDS011;13066;52.042;5.648;2024-02-26T14:32:11;8.77;;;7.70;;
25073;SDS011;13066;52.042;5.648;2024-02-26T14:34:40;8.32;;;6.93;;
25073;SDS011;13066;52.042;5.648;2024-02-26T14:37:08;7.85;;;7.03;;
25073;SDS011;13066;52.042;5.648;2024-02-26T14:39:38;8.05;;;7.05;;
25073;SDS011;13066;52.042;5.648;2024-02-26T14:42:06;8.48;;;7.57;;
25073;SDS011;13066;52.042;5.648;2024-02-26T14:44:34;8.02;;;7.07;;
25073;SDS011;13066;52.042;5.648;2024-02-26T14:47:03;8.73;;;7.57;;
25073;SDS011;13066;52.042;5.648;2024-02-26T14:49:31;7.60;;;6.80;;
25073;SDS011;13066;52.042;5.648;2024-02-26T14:52:00;8.63;;;6.65;;